sensor_id;sensor_type;location;lat;lon;timestamp;pressure;altitude;pressure_sealevel;temperature;humidity
47716;BME280;33476;50.984;3.538;2022-12-28T00:03:43;101675.09;;;9.27;72.08
47716;BME280;33476;50.984;3.538;2022-12-28T00:06:09;101656.75;;;9.30;72.40
47716;BME280;33476;50.984;3.538;2022-12-28T00:08:35;101679.19;;;9.34;72.36
47716;BME280;33476;50.984;3.538;2022-12-28T00:11:10;101662.00;;;9.28;72.48
47716;BME280;33476;50.984;3.538;2022-12-28T00:13:36;101647.91;;;9.36;72.43
47716;BME280;33476;50.984;3.538;2022-12-28T00:16:12;101646.25;;;9.32;72.47
47716;BME280;33476;50.984;3.538;2022-12-28T00:18:41;101639.25;;;9.34;72.20
47716;BME280;33476;50.984;3.538;2022-12-28T00:21:06;101647.84;;;9.37;72.38
47716;BME280;33476;50.984;3.538;2022-12-28T00:23:31;101644.22;;;9.41;72.36
47716;BME280;33476;50.984;3.538;2022-12-28T00:26:11;101648.59;;;9.41;72.48
47716;BME280;33476;50.984;3.538;2022-12-28T00:28:38;101645.81;;;9.47;71.88
47716;BME280;33476;50.984;3.538;2022-12-28T00:31:04;101646.00;;;9.41;72.53
47716;BME280;33476;50.984;3.538;2022-12-28T00:33:29;101638.03;;;9.45;72.48
47716;BME280;33476;50.984;3.538;2022-12-28T00:35:56;101635.28;;;9.50;72.10
47716;BME280;33476;50.984;3.538;2022-12-28T00:38:21;101629.09;;;9.54;72.38
47716;BME280;33476;50.984;3.538;2022-12-28T00:40:47;101621.50;;;9.46;72.44
47716;BME280;33476;50.984;3.538;2022-12-28T00:43:12;101614.53;;;9.47;72.68
47716;BME280;33476;50.984;3.538;2022-12-28T00:45:38;101609.03;;;9.56;72.20
47716;BME280;33476;50.984;3.538;2022-12-28T00:48:04;101609.75;;;9.61;72.21
47716;BME280;33476;50.984;3.538;2022-12-28T00:50:29;101598.28;;;9.65;72.58
47716;BME280;33476;50.984;3.538;2022-12-28T00:52:54;101592.19;;;9.66;72.55
47716;BME280;33476;50.984;3.538;2022-12-28T00:55:20;101589.50;;;9.69;72.33
47716;BME280;33476;50.984;3.538;2022-12-28T00:57:45;101585.97;;;9.70;72.74
47716;BME280;33476;50.984;3.538;2022-12-28T01:00:11;101583.25;;;9.73;72.41
47716;BME280;33476;50.984;3.538;2022-12-28T01:02:36;101584.22;;;9.71;72.41
47716;BME280;33476;50.984;3.538;2022-12-28T01:05:02;101574.56;;;9.73;72.74
47716;BME280;33476;50.984;3.538;2022-12-28T01:07:27;101564.03;;;9.76;72.45
47716;BME280;33476;50.984;3.538;2022-12-28T01:09:52;101561.41;;;9.77;72.77
47716;BME280;33476;50.984;3.538;2022-12-28T01:12:17;101556.88;;;9.82;72.78
47716;BME280;33476;50.984;3.538;2022-12-28T01:14:43;101563.78;;;9.83;72.77
47716;BME280;33476;50.984;3.538;2022-12-28T01:17:08;101546.38;;;9.84;72.77
47716;BME280;33476;50.984;3.538;2022-12-28T01:19:33;101530.63;;;9.87;72.94
47716;BME280;33476;50.984;3.538;2022-12-28T01:21:59;101549.69;;;9.89;73.05
47716;BME280;33476;50.984;3.538;2022-12-28T01:24:24;101545.28;;;9.91;72.87
47716;BME280;33476;50.984;3.538;2022-12-28T01:26:49;101548.06;;;9.87;73.13
47716;BME280;33476;50.984;3.538;2022-12-28T01:29:15;101535.94;;;9.84;73.32
47716;BME280;33476;50.984;3.538;2022-12-28T01:31:40;101539.25;;;9.89;73.32
47716;BME280;33476;50.984;3.538;2022-12-28T01:34:05;101542.53;;;9.96;73.20
47716;BME280;33476;50.984;3.538;2022-12-28T01:36:31;101544.94;;;10.00;73.11
47716;BME280;33476;50.984;3.538;2022-12-28T01:38:59;101544.88;;;10.03;72.92
47716;BME280;33476;50.984;3.538;2022-12-28T01:41:27;101536.06;;;10.06;73.04
47716;BME280;33476;50.984;3.538;2022-12-28T01:46:21;101529.09;;;10.06;73.17
47716;BME280;33476;50.984;3.538;2022-12-28T01:51:53;101529.75;;;10.13;72.75
47716;BME280;33476;50.984;3.538;2022-12-28T01:54:21;101514.03;;;10.14;72.54
47716;BME280;33476;50.984;3.538;2022-12-28T01:56:49;101530.72;;;10.10;73.05
47716;BME280;33476;50.984;3.538;2022-12-28T01:59:16;101519.44;;;10.08;73.13
47716;BME280;33476;50.984;3.538;2022-12-28T02:01:43;101516.94;;;10.05;73.47
47716;BME280;33476;50.984;3.538;2022-12-28T02:04:09;101509.81;;;10.10;73.38
47716;BME280;33476;50.984;3.538;2022-12-28T02:06:35;101523.56;;;10.16;73.43
47716;BME280;33476;50.984;3.538;2022-12-28T02:09:06;101509.66;;;10.15;73.40
47716;BME280;33476;50.984;3.538;2022-12-28T02:11:35;101508.66;;;10.19;73.30
47716;BME280;33476;50.984;3.538;2022-12-28T02:14:01;101503.38;;;10.21;73.16
47716;BME280;33476;50.984;3.538;2022-12-28T02:16:27;101498.06;;;10.24;73.41
47716;BME280;33476;50.984;3.538;2022-12-28T02:18:52;101498.06;;;10.24;73.34
47716;BME280;33476;50.984;3.538;2022-12-28T02:21:24;101494.00;;;10.15;73.79
47716;BME280;33476;50.984;3.538;2022-12-28T02:26:52;101488.56;;;10.21;73.82
47716;BME280;33476;50.984;3.538;2022-12-28T02:37:43;101470.28;;;10.21;74.21
47716;BME280;33476;50.984;3.538;2022-12-28T02:40:15;101472.00;;;10.22;74.07
47716;BME280;33476;50.984;3.538;2022-12-28T02:42:41;101461.22;;;10.31;73.87
47716;BME280;33476;50.984;3.538;2022-12-28T02:48:11;101456.97;;;10.29;73.66
47716;BME280;33476;50.984;3.538;2022-12-28T03:02:19;101445.75;;;10.27;74.60
47716;BME280;33476;50.984;3.538;2022-12-28T03:07:59;101446.63;;;10.26;75.08
47716;BME280;33476;50.984;3.538;2022-12-28T03:13:37;101439.50;;;10.31;75.36
47716;BME280;33476;50.984;3.538;2022-12-28T03:16:21;101431.66;;;10.31;75.49
47716;BME280;33476;50.984;3.538;2022-12-28T03:18:52;101435.88;;;10.35;75.59
47716;BME280;33476;50.984;3.538;2022-12-28T03:21:39;101435.88;;;10.35;75.48
47716;BME280;33476;50.984;3.538;2022-12-28T03:24:25;101435.03;;;10.34;75.55
47716;BME280;33476;50.984;3.538;2022-12-28T03:27:12;101421.06;;;10.35;75.57
47716;BME280;33476;50.984;3.538;2022-12-28T03:30:04;101419.38;;;10.34;75.61
47716;BME280;33476;50.984;3.538;2022-12-28T03:32:51;101422.53;;;10.43;75.24
47716;BME280;33476;50.984;3.538;2022-12-28T03:35:18;101431.22;;;10.43;75.42
47716;BME280;33476;50.984;3.538;2022-12-28T03:37:52;101412.09;;;10.43;75.29
47716;BME280;33476;50.984;3.538;2022-12-28T03:40:41;101412.88;;;10.45;75.43
47716;BME280;33476;50.984;3.538;2022-12-28T03:43:16;101417.06;;;10.49;75.30
47716;BME280;33476;50.984;3.538;2022-12-28T03:48:38;101405.47;;;10.56;75.14
47716;BME280;33476;50.984;3.538;2022-12-28T03:51:04;101412.31;;;10.60;75.09
47716;BME280;33476;50.984;3.538;2022-12-28T03:53:39;101408.22;;;10.53;75.50
47716;BME280;33476;50.984;3.538;2022-12-28T03:56:12;101398.50;;;10.56;75.33
47716;BME280;33476;50.984;3.538;2022-12-28T03:58:38;101400.94;;;10.61;75.24
47716;BME280;33476;50.984;3.538;2022-12-28T04:01:04;101397.50;;;10.59;75.27
47716;BME280;33476;50.984;3.538;2022-12-28T04:03:30;101390.56;;;10.59;75.55
47716;BME280;33476;50.984;3.538;2022-12-28T04:05:55;101385.13;;;10.64;75.07
47716;BME280;33476;50.984;3.538;2022-12-28T04:08:21;101413.75;;;10.67;75.35
47716;BME280;33476;50.984;3.538;2022-12-28T04:10:46;101390.22;;;10.67;75.43
47716;BME280;33476;50.984;3.538;2022-12-28T04:13:11;101383.31;;;10.66;75.45
47716;BME280;33476;50.984;3.538;2022-12-28T04:15:37;101384.06;;;10.69;75.51
47716;BME280;33476;50.984;3.538;2022-12-28T04:18:02;101369.22;;;10.70;75.50
47716;BME280;33476;50.984;3.538;2022-12-28T04:20:27;101373.53;;;10.71;75.31
47716;BME280;33476;50.984;3.538;2022-12-28T04:22:53;101394.25;;;10.76;75.32
47716;BME280;33476;50.984;3.538;2022-12-28T04:25:18;101364.72;;;10.74;75.33
47716;BME280;33476;50.984;3.538;2022-12-28T04:27:43;101396.19;;;10.71;75.59
47716;BME280;33476;50.984;3.538;2022-12-28T04:30:09;101365.75;;;10.69;75.77
47716;BME280;33476;50.984;3.538;2022-12-28T04:32:34;101365.56;;;10.74;75.48
47716;BME280;33476;50.984;3.538;2022-12-28T04:35:00;101372.38;;;10.78;75.29
47716;BME280;33476;50.984;3.538;2022-12-28T04:37:26;101363.69;;;10.78;75.46
47716;BME280;33476;50.984;3.538;2022-12-28T04:39:51;101362.59;;;10.83;75.34
47716;BME280;33476;50.984;3.538;2022-12-28T04:42:16;101355.66;;;10.82;75.39
47716;BME280;33476;50.984;3.538;2022-12-28T04:44:41;101385.22;;;10.84;75.43
47716;BME280;33476;50.984;3.538;2022-12-28T04:47:07;101372.09;;;10.86;75.63
47716;BME280;33476;50.984;3.538;2022-12-28T04:49:32;101375.47;;;10.88;75.56
47716;BME280;33476;50.984;3.538;2022-12-28T04:51:57;101356.19;;;10.90;75.34
47716;BME280;33476;50.984;3.538;2022-12-28T04:54:23;101356.09;;;10.93;75.28
47716;BME280;33476;50.984;3.538;2022-12-28T04:56:48;101363.94;;;10.93;75.38
47716;BME280;33476;50.984;3.538;2022-12-28T04:59:13;101364.78;;;10.94;75.19
47716;BME280;33476;50.984;3.538;2022-12-28T05:01:39;101350.66;;;10.98;75.26
47716;BME280;33476;50.984;3.538;2022-12-28T05:04:04;101349.09;;;10.94;75.27
47716;BME280;33476;50.984;3.538;2022-12-28T05:06:29;101344.66;;;10.96;75.41
47716;BME280;33476;50.984;3.538;2022-12-28T05:08:56;101340.22;;;10.98;75.36
47716;BME280;33476;50.984;3.538;2022-12-28T05:11:24;101341.91;;;10.99;75.29
47716;BME280;33476;50.984;3.538;2022-12-28T05:13:50;101346.22;;;11.00;75.36
47716;BME280;33476;50.984;3.538;2022-12-28T05:16:18;101344.59;;;10.97;75.35
47716;BME280;33476;50.984;3.538;2022-12-28T05:18:44;101343.75;;;10.97;75.62
47716;BME280;33476;50.984;3.538;2022-12-28T05:21:14;101348.81;;;11.00;75.40
47716;BME280;33476;50.984;3.538;2022-12-28T05:23:41;101343.59;;;11.00;75.32
47716;BME280;33476;50.984;3.538;2022-12-28T05:26:10;101343.59;;;11.00;75.56
47716;BME280;33476;50.984;3.538;2022-12-28T05:28:36;101345.13;;;11.06;75.40
47716;BME280;33476;50.984;3.538;2022-12-28T05:31:03;101342.56;;;11.04;75.44
47716;BME280;33476;50.984;3.538;2022-12-28T05:33:31;101340.75;;;11.06;75.45
47716;BME280;33476;50.984;3.538;2022-12-28T05:36:08;101348.78;;;11.02;75.56
47716;BME280;33476;50.984;3.538;2022-12-28T05:38:34;101345.19;;;11.04;75.47
47716;BME280;33476;50.984;3.538;2022-12-28T05:41:08;101345.38;;;11.00;75.70
47716;BME280;33476;50.984;3.538;2022-12-28T05:43:34;101341.66;;;11.05;75.60
47716;BME280;33476;50.984;3.538;2022-12-28T05:46:04;101339.81;;;11.07;75.40
47716;BME280;33476;50.984;3.538;2022-12-28T05:48:34;101340.75;;;11.06;75.45
47716;BME280;33476;50.984;3.538;2022-12-28T05:51:01;101344.97;;;11.09;75.45
47716;BME280;33476;50.984;3.538;2022-12-28T05:53:29;101341.59;;;11.07;75.56
47716;BME280;33476;50.984;3.538;2022-12-28T05:56:09;101340.94;;;11.02;75.91
47716;BME280;33476;50.984;3.538;2022-12-28T05:58:35;101344.19;;;11.07;75.49
47716;BME280;33476;50.984;3.538;2022-12-28T06:03:37;101341.53;;;11.08;75.50
47716;BME280;33476;50.984;3.538;2022-12-28T06:08:32;101332.72;;;11.11;75.47
47716;BME280;33476;50.984;3.538;2022-12-28T06:10:59;101336.28;;;11.08;75.45
47716;BME280;33476;50.984;3.538;2022-12-28T06:13:25;101329.25;;;11.10;75.63
47716;BME280;33476;50.984;3.538;2022-12-28T06:15:51;101322.19;;;11.12;75.37
47716;BME280;33476;50.984;3.538;2022-12-28T06:18:16;101325.50;;;11.16;75.27
47716;BME280;33476;50.984;3.538;2022-12-28T06:20:41;101322.97;;;11.14;75.36
47716;BME280;33476;50.984;3.538;2022-12-28T06:23:07;101309.81;;;11.16;75.12
47716;BME280;33476;50.984;3.538;2022-12-28T06:25:32;101317.63;;;11.17;74.86
47716;BME280;33476;50.984;3.538;2022-12-28T06:27:57;101312.41;;;11.17;75.07
47716;BME280;33476;50.984;3.538;2022-12-28T06:30:23;101306.28;;;11.17;75.17
47716;BME280;33476;50.984;3.538;2022-12-28T06:32:48;101314.13;;;11.17;75.10
47716;BME280;33476;50.984;3.538;2022-12-28T06:35:13;101308.06;;;11.16;75.14
47716;BME280;33476;50.984;3.538;2022-12-28T06:37:38;101310.63;;;11.18;75.28
47716;BME280;33476;50.984;3.538;2022-12-28T06:40:04;101301.88;;;11.19;75.08
47716;BME280;33476;50.984;3.538;2022-12-28T06:42:30;101303.50;;;11.21;75.12
47716;BME280;33476;50.984;3.538;2022-12-28T06:44:55;101300.03;;;11.21;74.71
47716;BME280;33476;50.984;3.538;2022-12-28T06:47:20;101293.09;;;11.20;75.03
47716;BME280;33476;50.984;3.538;2022-12-28T06:49:46;101305.25;;;11.21;75.01
47716;BME280;33476;50.984;3.538;2022-12-28T06:52:11;101296.72;;;11.17;74.98
47716;BME280;33476;50.984;3.538;2022-12-28T06:54:36;101285.38;;;11.17;75.07
47716;BME280;33476;50.984;3.538;2022-12-28T06:57:02;101295.78;;;11.18;74.94
47716;BME280;33476;50.984;3.538;2022-12-28T06:59:27;101283.69;;;11.16;74.97
47716;BME280;33476;50.984;3.538;2022-12-28T07:01:52;101280.16;;;11.17;75.06
47716;BME280;33476;50.984;3.538;2022-12-28T07:04:18;101279.19;;;11.19;75.18
47716;BME280;33476;50.984;3.538;2022-12-28T07:06:43;101288.88;;;11.17;75.07
47716;BME280;33476;50.984;3.538;2022-12-28T07:09:11;101279.19;;;11.19;74.81
47716;BME280;33476;50.984;3.538;2022-12-28T07:11:37;101275.59;;;11.22;74.72
47716;BME280;33476;50.984;3.538;2022-12-28T07:14:03;101277.41;;;11.20;74.77
47716;BME280;33476;50.984;3.538;2022-12-28T07:16:29;101275.84;;;11.16;74.94
47716;BME280;33476;50.984;3.538;2022-12-28T07:18:56;101272.44;;;11.14;74.82
47716;BME280;33476;50.984;3.538;2022-12-28T07:21:30;101275.13;;;11.12;74.85
47716;BME280;33476;50.984;3.538;2022-12-28T07:23:56;101270.44;;;11.20;74.50
47716;BME280;33476;50.984;3.538;2022-12-28T07:26:25;101272.19;;;11.20;74.53
47716;BME280;33476;50.984;3.538;2022-12-28T07:28:54;101266.03;;;11.21;74.41
47716;BME280;33476;50.984;3.538;2022-12-28T07:31:22;101264.19;;;11.23;74.31
47716;BME280;33476;50.984;3.538;2022-12-28T07:33:48;101272.81;;;11.25;74.34
47716;BME280;33476;50.984;3.538;2022-12-28T07:36:16;101262.38;;;11.25;73.90
47716;BME280;33476;50.984;3.538;2022-12-28T07:38:42;101259.81;;;11.23;73.95
47716;BME280;33476;50.984;3.538;2022-12-28T07:41:11;101264.19;;;11.23;74.00
47716;BME280;33476;50.984;3.538;2022-12-28T07:43:36;101253.88;;;11.20;74.07
47716;BME280;33476;50.984;3.538;2022-12-28T07:46:13;101253.88;;;11.20;74.16
47716;BME280;33476;50.984;3.538;2022-12-28T07:48:40;101255.50;;;11.22;74.04
47716;BME280;33476;50.984;3.538;2022-12-28T07:53:37;101256.38;;;11.23;74.06
47716;BME280;33476;50.984;3.538;2022-12-28T07:56:03;101250.22;;;11.24;73.93
47716;BME280;33476;50.984;3.538;2022-12-28T07:58:28;101247.56;;;11.25;74.02
47716;BME280;33476;50.984;3.538;2022-12-28T08:00:53;101253.63;;;11.26;73.97
47716;BME280;33476;50.984;3.538;2022-12-28T08:03:19;101259.81;;;11.23;74.24
47716;BME280;33476;50.984;3.538;2022-12-28T08:05:44;101247.75;;;11.21;74.23
47716;BME280;33476;50.984;3.538;2022-12-28T08:08:10;101241.75;;;11.19;74.27
47716;BME280;33476;50.984;3.538;2022-12-28T08:10:35;101236.44;;;11.20;74.36
47716;BME280;33476;50.984;3.538;2022-12-28T08:13:01;101258.34;;;11.18;74.36
47716;BME280;33476;50.984;3.538;2022-12-28T08:15:27;101244.47;;;11.16;74.69
47716;BME280;33476;50.984;3.538;2022-12-28T08:17:53;101254.16;;;11.14;74.81
47716;BME280;33476;50.984;3.538;2022-12-28T08:20:19;101236.94;;;11.08;75.30
47716;BME280;33476;50.984;3.538;2022-12-28T08:22:44;101237.75;;;11.10;75.47
47716;BME280;33476;50.984;3.538;2022-12-28T08:25:09;101230.84;;;11.09;75.73
47716;BME280;33476;50.984;3.538;2022-12-28T08:27:35;101235.00;;;11.13;75.89
47716;BME280;33476;50.984;3.538;2022-12-28T08:30:00;101244.47;;;11.16;75.65
47716;BME280;33476;50.984;3.538;2022-12-28T08:32:25;101236.63;;;11.16;75.73
47716;BME280;33476;50.984;3.538;2022-12-28T08:34:51;101240.03;;;11.18;75.64
47716;BME280;33476;50.984;3.538;2022-12-28T08:37:16;101236.59;;;11.17;75.77
47716;BME280;33476;50.984;3.538;2022-12-28T08:39:41;101235.69;;;11.17;75.83
47716;BME280;33476;50.984;3.538;2022-12-28T08:42:06;101225.97;;;11.20;75.70
47716;BME280;33476;50.984;3.538;2022-12-28T08:44:32;101233.91;;;11.19;75.92
47716;BME280;33476;50.984;3.538;2022-12-28T08:46:57;101222.59;;;11.18;75.99
47716;BME280;33476;50.984;3.538;2022-12-28T08:49:23;101239.19;;;11.17;76.10
47716;BME280;33476;50.984;3.538;2022-12-28T08:51:48;101228.78;;;11.16;76.90
47716;BME280;33476;50.984;3.538;2022-12-28T08:54:13;101219.91;;;11.20;76.38
47716;BME280;33476;50.984;3.538;2022-12-28T08:56:40;101226.06;;;11.19;76.43
47716;BME280;33476;50.984;3.538;2022-12-28T08:59:06;101218.06;;;11.22;76.64
47716;BME280;33476;50.984;3.538;2022-12-28T09:01:34;101222.59;;;11.18;76.52
47716;BME280;33476;50.984;3.538;2022-12-28T09:04:00;101218.28;;;11.17;76.63
47716;BME280;33476;50.984;3.538;2022-12-28T09:06:30;101231.47;;;11.14;77.08
47716;BME280;33476;50.984;3.538;2022-12-28T09:08:58;101217.41;;;11.17;77.03
47716;BME280;33476;50.984;3.538;2022-12-28T09:11:24;101209.53;;;11.18;77.11
47716;BME280;33476;50.984;3.538;2022-12-28T09:13:49;101217.13;;;11.23;76.99
47716;BME280;33476;50.984;3.538;2022-12-28T09:16:20;101216.28;;;11.22;77.21
47716;BME280;33476;50.984;3.538;2022-12-28T09:18:48;101217.06;;;11.24;77.06
47716;BME280;33476;50.984;3.538;2022-12-28T09:21:19;101219.81;;;11.21;77.17
47716;BME280;33476;50.984;3.538;2022-12-28T09:23:45;101206.84;;;11.20;77.30
47716;BME280;33476;50.984;3.538;2022-12-28T09:26:17;101213.75;;;11.21;77.39
47716;BME280;33476;50.984;3.538;2022-12-28T09:28:44;101212.75;;;11.23;77.39
47716;BME280;33476;50.984;3.538;2022-12-28T09:31:10;101210.22;;;11.22;77.41
47716;BME280;33476;50.984;3.538;2022-12-28T09:33:35;101209.19;;;11.26;77.41
47716;BME280;33476;50.984;3.538;2022-12-28T09:36:20;101205.72;;;11.25;77.29
47716;BME280;33476;50.984;3.538;2022-12-28T09:38:46;101216.19;;;11.25;77.64
47716;BME280;33476;50.984;3.538;2022-12-28T09:41:22;101207.59;;;11.22;77.79
47716;BME280;33476;50.984;3.538;2022-12-28T09:43:52;101205.75;;;11.24;77.58
47716;BME280;33476;50.984;3.538;2022-12-28T09:46:21;101207.53;;;11.23;77.77
47716;BME280;33476;50.984;3.538;2022-12-28T09:48:53;101211.06;;;11.22;77.75
47716;BME280;33476;50.984;3.538;2022-12-28T09:51:20;101216.09;;;11.27;77.68
47716;BME280;33476;50.984;3.538;2022-12-28T09:53:48;101214.00;;;11.35;77.55
47716;BME280;33476;50.984;3.538;2022-12-28T09:56:30;101210.81;;;11.29;77.81
47716;BME280;33476;50.984;3.538;2022-12-28T09:58:57;101207.97;;;11.33;77.52
47716;BME280;33476;50.984;3.538;2022-12-28T10:01:23;101204.56;;;11.31;77.69
47716;BME280;33476;50.984;3.538;2022-12-28T10:03:49;101209.97;;;11.28;77.80
47716;BME280;33476;50.984;3.538;2022-12-28T10:06:18;101206.34;;;11.31;77.78
47716;BME280;33476;50.984;3.538;2022-12-28T10:08:50;101208.03;;;11.32;78.02
47716;BME280;33476;50.984;3.538;2022-12-28T10:11:19;101220.00;;;11.37;77.90
47716;BME280;33476;50.984;3.538;2022-12-28T10:13:48;101196.53;;;11.36;77.96
47716;BME280;33476;50.984;3.538;2022-12-28T10:16:18;101199.06;;;11.37;78.00
47716;BME280;33476;50.984;3.538;2022-12-28T10:18:44;101195.63;;;11.37;77.98
47716;BME280;33476;50.984;3.538;2022-12-28T10:21:11;101181.63;;;11.38;78.24
47716;BME280;33476;50.984;3.538;2022-12-28T10:23:37;101177.31;;;11.37;78.36
47716;BME280;33476;50.984;3.538;2022-12-28T10:26:05;101186.19;;;11.33;78.71
47716;BME280;33476;50.984;3.538;2022-12-28T10:28:40;101185.34;;;11.32;78.58
47716;BME280;33476;50.984;3.538;2022-12-28T10:31:11;101177.31;;;11.37;78.45
47716;BME280;33476;50.984;3.538;2022-12-28T10:33:42;101184.94;;;11.41;78.38
47716;BME280;33476;50.984;3.538;2022-12-28T10:36:14;101172.69;;;11.42;78.39
47716;BME280;33476;50.984;3.538;2022-12-28T10:38:42;101176.22;;;11.41;78.41
47716;BME280;33476;50.984;3.538;2022-12-28T10:41:14;101168.34;;;11.42;78.61
47716;BME280;33476;50.984;3.538;2022-12-28T10:43:43;101159.63;;;11.42;78.44
47716;BME280;33476;50.984;3.538;2022-12-28T10:46:21;101157.00;;;11.42;78.45
47716;BME280;33476;50.984;3.538;2022-12-28T10:48:54;101145.56;;;11.44;78.22
47716;BME280;33476;50.984;3.538;2022-12-28T10:51:22;101151.38;;;11.51;77.94
47716;BME280;33476;50.984;3.538;2022-12-28T10:53:50;101145.06;;;11.55;77.87
47716;BME280;33476;50.984;3.538;2022-12-28T10:56:32;101133.97;;;11.50;78.07
47716;BME280;33476;50.984;3.538;2022-12-28T11:01:40;101127.41;;;11.60;77.33
47716;BME280;33476;50.984;3.538;2022-12-28T11:04:15;101124.88;;;11.59;77.32
47716;BME280;33476;50.984;3.538;2022-12-28T11:06:56;101124.06;;;11.57;77.18
47716;BME280;33476;50.984;3.538;2022-12-28T11:09:30;101117.91;;;11.58;77.23
47716;BME280;33476;50.984;3.538;2022-12-28T11:12:21;101111.91;;;11.56;77.13
47716;BME280;33476;50.984;3.538;2022-12-28T11:14:47;101098.47;;;11.63;76.75
47716;BME280;33476;50.984;3.538;2022-12-28T11:17:26;101089.00;;;11.61;76.72
47716;BME280;33476;50.984;3.538;2022-12-28T11:20:13;101080.06;;;11.65;76.57
47716;BME280;33476;50.984;3.538;2022-12-28T11:22:41;101079.03;;;11.69;76.46
47716;BME280;33476;50.984;3.538;2022-12-28T11:25:07;101061.69;;;11.66;76.37
47716;BME280;33476;50.984;3.538;2022-12-28T11:27:33;101070.16;;;11.71;76.12
47716;BME280;33476;50.984;3.538;2022-12-28T11:29:59;101075.63;;;11.67;76.37
47716;BME280;33476;50.984;3.538;2022-12-28T11:32:34;101081.00;;;11.64;76.57
47716;BME280;33476;50.984;3.538;2022-12-28T11:35:03;101057.25;;;11.68;76.06
47716;BME280;33476;50.984;3.538;2022-12-28T11:37:28;101046.63;;;11.71;75.94
47716;BME280;33476;50.984;3.538;2022-12-28T11:39:53;101041.22;;;11.74;75.79
47716;BME280;33476;50.984;3.538;2022-12-28T11:45:11;101031.38;;;11.79;75.70
47716;BME280;33476;50.984;3.538;2022-12-28T11:47:37;101035.78;;;11.79;75.29
47716;BME280;33476;50.984;3.538;2022-12-28T11:52:56;101011.25;;;11.81;75.17
47716;BME280;33476;50.984;3.538;2022-12-28T11:55:43;101019.19;;;11.80;75.30
47716;BME280;33476;50.984;3.538;2022-12-28T12:00:55;101004.44;;;11.77;74.91
47716;BME280;33476;50.984;3.538;2022-12-28T12:11:48;100987.56;;;11.85;74.45
47716;BME280;33476;50.984;3.538;2022-12-28T12:14:16;100983.16;;;11.85;74.55
47716;BME280;33476;50.984;3.538;2022-12-28T12:16:48;100972.44;;;11.90;74.50
47716;BME280;33476;50.984;3.538;2022-12-28T12:19:29;100963.75;;;11.89;74.19
47716;BME280;33476;50.984;3.538;2022-12-28T12:22:01;100955.13;;;11.87;73.99
47716;BME280;33476;50.984;3.538;2022-12-28T12:24:43;100961.84;;;11.93;74.00
47716;BME280;33476;50.984;3.538;2022-12-28T12:27:17;100925.78;;;11.98;73.76
47716;BME280;33476;50.984;3.538;2022-12-28T12:29:47;100927.81;;;11.93;73.67
47716;BME280;33476;50.984;3.538;2022-12-28T12:32:30;100919.97;;;11.93;73.92
47716;BME280;33476;50.984;3.538;2022-12-28T12:35:05;100918.56;;;12.03;73.33
47716;BME280;33476;50.984;3.538;2022-12-28T12:43:27;100903.38;;;12.09;73.22
47716;BME280;33476;50.984;3.538;2022-12-28T12:46:07;100908.53;;;12.11;73.03
47716;BME280;33476;50.984;3.538;2022-12-28T12:49:09;100887.91;;;12.05;73.19
47716;BME280;33476;50.984;3.538;2022-12-28T12:51:59;100888.66;;;12.07;72.85
47716;BME280;33476;50.984;3.538;2022-12-28T12:57:10;100848.72;;;12.03;72.97
47716;BME280;33476;50.984;3.538;2022-12-28T13:02:49;100856.91;;;12.13;72.80
47716;BME280;33476;50.984;3.538;2022-12-28T13:05:21;100833.97;;;12.18;72.50
47716;BME280;33476;50.984;3.538;2022-12-28T13:07:49;100832.59;;;12.11;72.58
47716;BME280;33476;50.984;3.538;2022-12-28T13:10:23;100825.91;;;12.05;72.57
47716;BME280;33476;50.984;3.538;2022-12-28T13:12:52;100828.44;;;12.07;72.41
47716;BME280;33476;50.984;3.538;2022-12-28T13:15:20;100819.41;;;12.13;72.26
47716;BME280;33476;50.984;3.538;2022-12-28T13:20:24;100813.34;;;12.12;71.80
47716;BME280;33476;50.984;3.538;2022-12-28T13:22:50;100800.00;;;12.17;71.77
47716;BME280;33476;50.984;3.538;2022-12-28T13:25:30;100809.56;;;12.18;71.94
47716;BME280;33476;50.984;3.538;2022-12-28T13:27:58;100805.69;;;12.25;71.54
47716;BME280;33476;50.984;3.538;2022-12-28T13:30:25;100789.09;;;12.24;71.39
47716;BME280;33476;50.984;3.538;2022-12-28T13:32:53;100784.88;;;12.22;71.43
47716;BME280;33476;50.984;3.538;2022-12-28T13:35:22;100783.00;;;12.24;71.09
47716;BME280;33476;50.984;3.538;2022-12-28T13:38:01;100787.41;;;12.23;71.24
47716;BME280;33476;50.984;3.538;2022-12-28T13:40:30;100768.66;;;12.31;70.99
47716;BME280;33476;50.984;3.538;2022-12-28T13:45:24;100768.50;;;12.34;70.85
47716;BME280;33476;50.984;3.538;2022-12-28T13:47:51;100757.22;;;12.32;70.88
47716;BME280;33476;50.984;3.538;2022-12-28T13:50:21;100753.88;;;12.30;70.77
47716;BME280;33476;50.984;3.538;2022-12-28T13:52:58;100727.69;;;12.30;71.01
47716;BME280;33476;50.984;3.538;2022-12-28T13:55:47;100736.72;;;12.24;71.00
47716;BME280;33476;50.984;3.538;2022-12-28T13:58:17;100742.72;;;12.26;70.86
47716;BME280;33476;50.984;3.538;2022-12-28T14:00:46;100727.03;;;12.26;70.58
47716;BME280;33476;50.984;3.538;2022-12-28T14:03:12;100719.06;;;12.28;70.50
47716;BME280;33476;50.984;3.538;2022-12-28T14:05:44;100715.63;;;12.27;70.55
47716;BME280;33476;50.984;3.538;2022-12-28T14:08:12;100706.72;;;12.30;70.59
47716;BME280;33476;50.984;3.538;2022-12-28T14:10:40;100723.28;;;12.30;70.14
47716;BME280;33476;50.984;3.538;2022-12-28T14:13:08;100712.91;;;12.29;70.34
47716;BME280;33476;50.984;3.538;2022-12-28T14:15:35;100704.19;;;12.28;70.71
47716;BME280;33476;50.984;3.538;2022-12-28T14:18:01;100711.97;;;12.30;70.52
47716;BME280;33476;50.984;3.538;2022-12-28T14:20:27;100689.97;;;12.32;70.54
47716;BME280;33476;50.984;3.538;2022-12-28T14:22:52;100703.97;;;12.33;70.43
47716;BME280;33476;50.984;3.538;2022-12-28T14:25:19;100692.38;;;12.21;71.02